Time;durP1;ratioP1;P1;durP2;ratioP2;P2;SDS_P1;SDS_P2;PMS_P1;PMS_P2;Temp;Humidity;BMP_temperature;BMP_pressure;BME280_temperature;BME280_humidity;BME280_pressure;Samples;Min_cycle;Max_cycle;Signal;HPM_P1;HPM_P2
2022/12/02 00:01:33;;;;;;;4.70;3.42;;;14.40;68.50;;;;;;5125088;28;20073;-66
2022/12/02 00:04:00;;;;;;;4.72;3.47;;;14.40;68.50;;;;;;5124920;28;20019;-69
2022/12/02 00:06:31;;;;;;;3.95;2.78;;;14.40;68.30;;;;;;5124827;28;20024;-67
2022/12/02 00:09:17;;;;;;;3.20;2.80;;;14.40;68.30;;;;;;5124786;28;20248;-67
2022/12/02 00:11:44;;;;;;;3.30;3.00;;;14.40;68.10;;;;;;5124849;28;20084;-68
2022/12/02 00:14:28;;;;;;;3.35;2.85;;;14.40;68.10;;;;;;5124663;28;20334;-68
2022/12/02 00:16:55;;;;;;;3.83;2.75;;;14.40;68.10;;;;;;5106662;28;20031;-68
2022/12/02 00:19:23;;;;;;;4.05;3.33;;;14.40;68.00;;;;;;5124622;28;20008;-67
2022/12/02 00:21:50;;;;;;;4.55;3.42;;;14.40;68.00;;;;;;5124541;28;20020;-68
2022/12/02 00:24:17;;;;;;;4.03;2.85;;;14.50;68.00;;;;;;5124630;28;20015;-68
2022/12/02 00:26:43;;;;;;;3.75;2.92;;;14.40;67.90;;;;;;5124429;28;20047;-68
2022/12/02 00:29:09;;;;;;;3.88;3.05;;;14.40;67.80;;;;;;5124371;28;20020;-67
2022/12/02 00:31:35;;;;;;;4.25;3.00;;;14.50;67.80;;;;;;5124326;28;20024;-67
2022/12/02 00:34:02;;;;;;;4.85;3.30;;;14.50;67.90;;;;;;5124251;28;20030;-68
2022/12/02 00:36:28;;;;;;;3.95;3.55;;;14.40;67.90;;;;;;5124255;28;20048;-68
2022/12/02 00:38:55;;;;;;;3.92;3.05;;;14.40;68.20;;;;;;5124340;28;20020;-67
2022/12/02 00:41:21;;;;;;;5.07;3.63;;;14.30;68.40;;;;;;5123969;28;20058;-68
2022/12/02 00:46:44;;;;;;;3.83;3.40;;;14.30;68.60;;;;;;5100662;28;20059;-67
2022/12/02 00:49:13;;;;;;;3.70;3.13;;;14.30;68.60;;;;;;5139969;27;20279;-68
2022/12/02 00:51:40;;;;;;;;;;;14.30;68.80;;;;;;5124401;28;20088;-68
2022/12/02 00:54:06;;;;;;;4.57;3.70;;;14.30;68.50;;;;;;5123187;28;19957;-67
2022/12/02 00:56:33;;;;;;;4.25;3.22;;;14.30;68.70;;;;;;5123899;28;20016;-69
2022/12/02 00:58:59;;;;;;;3.78;2.80;;;14.30;68.90;;;;;;5105619;28;20015;-68
2022/12/02 01:01:25;;;;;;;3.67;3.13;;;14.20;68.90;;;;;;5123796;28;20331;-67
2022/12/02 01:03:51;;;;;;;4.45;3.20;;;14.30;68.70;;;;;;5123783;28;20025;-67
2022/12/02 01:06:17;;;;;;;3.38;3.08;;;14.30;68.60;;;;;;5123635;28;20023;-68
2022/12/02 01:08:43;;;;;;;4.63;3.30;;;14.30;68.60;;;;;;5123608;28;20015;-68
2022/12/02 01:11:09;;;;;;;5.03;3.63;;;14.30;68.50;;;;;;5123595;28;20211;-68
2022/12/02 01:13:35;;;;;;;4.50;3.10;;;14.30;68.50;;;;;;5105310;28;20035;-67
2022/12/02 01:16:03;;;;;;;3.03;2.75;;;14.30;68.40;;;;;;5123400;28;20027;-67
2022/12/02 01:18:29;;;;;;;4.82;3.75;;;14.30;68.40;;;;;;5123484;28;20046;-68
2022/12/02 01:20:55;;;;;;;4.50;3.67;;;14.30;68.30;;;;;;5123393;28;20015;-68
2022/12/02 01:23:20;;;;;;;4.20;3.10;;;14.30;68.30;;;;;;5123381;28;20208;-68
2022/12/02 01:25:47;;;;;;;3.45;3.05;;;14.40;68.30;;;;;;5123222;28;20023;-67
2022/12/02 01:28:14;;;;;;;3.45;3.05;;;14.40;68.30;;;;;;5123252;28;20015;-68
2022/12/02 01:30:40;;;;;;;3.75;3.00;;;14.40;68.20;;;;;;5104917;28;20077;-68
2022/12/02 01:33:06;;;;;;;3.63;3.03;;;14.40;68.20;;;;;;5123061;28;20327;-67
2022/12/02 01:35:31;;;;;;;3.83;3.10;;;14.40;68.00;;;;;;5123119;28;20113;-68
2022/12/02 01:37:57;;;;;;;3.47;2.83;;;14.40;68.00;;;;;;5122668;28;20326;-68
2022/12/02 01:40:24;;;;;;;3.38;2.50;;;14.40;68.00;;;;;;5123170;28;20068;-67
2022/12/02 01:42:49;;;;;;;3.75;3.00;;;14.40;68.00;;;;;;5122948;28;20110;-69
2022/12/02 01:45:16;;;;;;;3.42;2.50;;;14.40;67.90;;;;;;5122957;28;20055;-68
2022/12/02 01:47:42;;;;;;;3.42;2.90;;;14.40;68.10;;;;;;5122933;28;20019;-68
2022/12/02 01:50:11;;;;;;;4.50;3.55;;;14.40;68.30;;;;;;5122902;28;20061;-68
2022/12/02 01:52:37;;;;;;;4.00;3.10;;;14.30;68.30;;;;;;5105222;28;20028;-67
2022/12/02 01:55:05;;;;;;;4.18;3.03;;;14.30;68.50;;;;;;5122708;28;20192;-67
2022/12/02 01:57:31;;;;;;;3.97;3.22;;;14.30;68.50;;;;;;5122765;28;20030;-67
2022/12/02 01:59:57;;;;;;;4.45;3.90;;;14.30;68.50;;;;;;5122652;28;20059;-67
2022/12/02 02:02:43;;;;;;;3.38;2.95;;;14.30;68.60;;;;;;5104564;28;20150;-68
2022/12/02 02:05:14;;;;;;;4.03;3.08;;;14.30;68.50;;;;;;5121621;28;20022;-68
2022/12/02 02:07:42;;;;;;;4.38;3.50;;;14.30;68.60;;;;;;5104428;28;20024;-68
2022/12/02 02:10:08;;;;;;;4.68;3.25;;;14.30;68.70;;;;;;5122615;28;20018;-68
2022/12/02 02:12:35;;;;;;;4.47;3.20;;;14.20;68.80;;;;;;5122601;28;20035;-68
2022/12/02 02:15:05;;;;;;;3.78;2.75;;;14.30;68.60;;;;;;5122547;28;20053;-68
2022/12/02 02:17:31;;;;;;;4.03;3.25;;;14.30;68.70;;;;;;5122605;28;20023;-67
2022/12/02 02:19:57;;;;;;;4.38;3.20;;;14.30;68.50;;;;;;5122455;28;20071;-68
2022/12/02 02:22:38;;;;;;;4.78;3.38;;;14.30;68.50;;;;;;5122427;28;20035;-69
2022/12/02 02:25:13;;;;;;;3.75;2.88;;;14.30;68.50;;;;;;5104300;28;20397;-69
2022/12/02 02:27:39;;;;;;;3.80;3.25;;;14.30;68.50;;;;;;5122368;28;20307;-67
2022/12/02 02:30:06;;;;;;;4.82;3.75;;;14.30;68.40;;;;;;5122392;28;20371;-67
2022/12/02 02:32:32;;;;;;;4.10;2.95;;;14.30;68.40;;;;;;5122390;28;20031;-67
2022/12/02 02:34:58;;;;;;;3.63;2.83;;;14.30;68.30;;;;;;5122300;28;20188;-67
2022/12/02 02:37:24;;;;;;;4.32;3.03;;;14.30;68.30;;;;;;5122376;28;20047;-68
2022/12/02 02:39:51;;;;;;;3.30;2.97;;;14.30;68.30;;;;;;5122351;28;20016;-68
2022/12/02 02:42:16;;;;;;;3.88;3.05;;;14.30;68.30;;;;;;5122175;28;20343;-68
2022/12/02 02:44:43;;;;;;;3.30;3.00;;;14.30;68.30;;;;;;5122248;28;20095;-67
2022/12/02 02:47:09;;;;;;;3.10;2.80;;;14.40;68.30;;;;;;5122235;28;20019;-68
2022/12/02 02:49:35;;;;;;;4.22;3.65;;;14.30;68.20;;;;;;5122234;28;20020;-69
2022/12/02 02:52:00;;;;;;;4.18;3.33;;;14.40;68.10;;;;;;5122222;28;20065;-69
2022/12/02 02:54:26;;;;;;;3.42;3.13;;;14.40;68.10;;;;;;5103825;28;20027;-68
2022/12/02 02:56:52;;;;;;;4.15;3.30;;;14.40;68.20;;;;;;5122130;28;20062;-67
2022/12/02 02:59:18;;;;;;;5.45;3.72;;;14.40;68.10;;;;;;5122150;28;20027;-67
2022/12/02 03:01:47;;;;;;;3.92;2.92;;;14.30;68.20;;;;;;5122185;28;20208;-68
2022/12/02 03:04:17;;;;;;;4.25;3.05;;;14.30;68.40;;;;;;5122111;28;20032;-68
2022/12/02 03:06:44;;;;;;;4.15;3.00;;;14.20;68.70;;;;;;5122038;28;20073;-68
2022/12/02 03:09:13;;;;;;;3.72;3.35;;;14.20;68.60;;;;;;5122050;28;20031;-69
2022/12/02 03:11:40;;;;;;;4.25;3.10;;;14.20;68.60;;;;;;5122000;28;20255;-68
2022/12/02 03:14:08;;;;;;;3.38;2.78;;;14.30;68.70;;;;;;5121879;28;20043;-69
2022/12/02 03:16:34;;;;;;;4.22;3.72;;;14.20;68.70;;;;;;5123482;28;20012;-69
2022/12/02 03:19:00;;;;;;;3.63;3.05;;;14.30;68.70;;;;;;5125761;28;20249;-68
2022/12/02 03:21:26;;;;;;;3.25;2.58;;;14.30;68.60;;;;;;5125710;28;20012;-68
2022/12/02 03:23:55;;;;;;;3.67;2.97;;;14.30;68.80;;;;;;5125620;28;20035;-69
2022/12/02 03:26:21;;;;;;;4.53;3.55;;;14.20;68.80;;;;;;5125678;28;20080;-68
2022/12/02 03:28:48;;;;;;;3.83;2.88;;;14.20;68.60;;;;;;5125597;28;20027;-68
2022/12/02 03:31:14;;;;;;;4.05;3.25;;;14.30;68.50;;;;;;5125555;28;20306;-67
2022/12/02 03:33:42;;;;;;;3.63;3.00;;;14.30;68.50;;;;;;5125474;28;20046;-67
2022/12/02 03:36:09;;;;;;;3.87;2.97;;;14.30;68.50;;;;;;5125676;28;20043;-67
2022/12/02 03:38:35;;;;;;;4.47;3.40;;;14.30;68.50;;;;;;5125391;28;20011;-69
2022/12/02 03:41:04;;;;;;;4.10;3.45;;;14.30;68.50;;;;;;5125155;28;20024;-68
2022/12/02 03:43:30;;;;;;;;;;;14.30;68.40;;;;;;5125752;28;20023;-68
2022/12/02 03:45:57;;;;;;;3.47;2.80;;;14.30;68.40;;;;;;5125141;28;20238;-68
2022/12/02 03:48:24;;;;;;;3.53;3.13;;;14.30;68.30;;;;;;5125192;28;20087;-68
2022/12/02 03:50:52;;;;;;;3.53;2.88;;;14.30;68.30;;;;;;5125212;28;20023;-68
2022/12/02 03:53:19;;;;;;;3.53;2.75;;;14.30;68.20;;;;;;5125000;28;20030;-68
2022/12/02 03:55:45;;;;;;;5.28;3.65;;;14.30;68.10;;;;;;5106884;28;20057;-68
2022/12/02 03:58:11;;;;;;;4.65;3.55;;;14.30;68.10;;;;;;5125023;28;20015;-68
2022/12/02 04:00:37;;;;;;;4.78;3.45;;;14.30;68.10;;;;;;5124919;28;20016;-69
2022/12/02 04:03:04;;;;;;;4.07;3.28;;;14.30;68.00;;;;;;5124914;28;20023;-69
2022/12/02 04:05:30;;;;;;;5.00;3.60;;;14.30;68.00;;;;;;5124868;28;20016;-68
2022/12/02 04:07:56;;;;;;;3.90;3.50;;;14.30;68.10;;;;;;5124778;28;20019;-67
2022/12/02 04:10:22;;;;;;;3.83;3.35;;;14.30;68.10;;;;;;5124780;28;20076;-69
2022/12/02 04:12:48;;;;;;;3.30;2.72;;;14.30;68.30;;;;;;5124731;28;20188;-68
2022/12/02 04:15:14;;;;;;;4.03;3.38;;;14.30;68.50;;;;;;5124687;28;20019;-68
2022/12/02 04:17:39;;;;;;;3.78;3.22;;;14.30;68.60;;;;;;5124589;28;20024;-68
2022/12/02 04:20:07;;;;;;;3.72;3.00;;;14.20;68.80;;;;;;5124702;28;20046;-68
2022/12/02 04:22:32;;;;;;;3.40;2.80;;;14.20;68.90;;;;;;5124607;28;20078;-67
2022/12/02 04:24:59;;;;;;;3.20;2.85;;;14.20;68.90;;;;;;5124431;28;20308;-67
2022/12/02 04:27:25;;;;;;;5.22;3.22;;;14.20;69.00;;;;;;5139717;27;20139;-69
2022/12/02 04:29:51;;;;;;;4.80;3.40;;;14.20;68.90;;;;;;5124105;28;20045;-69
2022/12/02 04:32:18;;;;;;;4.63;3.70;;;14.20;68.80;;;;;;5124397;28;20078;-68
2022/12/02 04:34:44;;;;;;;4.38;3.38;;;14.20;68.90;;;;;;5124183;28;20016;-67
2022/12/02 04:37:10;;;;;;;5.97;3.50;;;14.20;68.90;;;;;;5124158;28;20201;-67
2022/12/02 04:39:35;;;;;;;4.07;3.13;;;14.20;68.90;;;;;;5124201;28;20075;-68
2022/12/02 04:42:01;;;;;;;4.38;3.40;;;14.20;68.80;;;;;;5123966;28;20101;-69
2022/12/02 04:44:27;;;;;;;4.75;3.85;;;14.20;68.60;;;;;;5124140;28;20109;-68
2022/12/02 04:46:53;;;;;;;5.00;3.50;;;14.20;68.60;;;;;;5124112;28;20023;-68
2022/12/02 04:49:18;;;;;;;5.05;3.55;;;14.30;68.60;;;;;;5124026;28;20043;-68
2022/12/02 04:51:44;;;;;;;5.40;3.17;;;14.30;68.60;;;;;;5123932;28;20027;-67
2022/12/02 04:54:10;;;;;;;6.28;3.70;;;14.30;68.50;;;;;;5123798;28;20019;-67
2022/12/02 04:56:36;;;;;;;4.00;3.20;;;14.30;68.50;;;;;;5105759;28;20022;-68
2022/12/02 04:59:02;;;;;;;4.03;2.88;;;14.30;68.50;;;;;;5123780;28;20022;-69
2022/12/02 05:01:28;;;;;;;4.30;3.30;;;14.30;68.50;;;;;;5123772;28;20303;-68
2022/12/02 05:03:53;;;;;;;3.67;3.20;;;14.30;68.40;;;;;;5123725;28;20087;-68
2022/12/02 05:06:19;;;;;;;4.60;3.40;;;14.30;68.20;;;;;;5105506;28;20019;-67
2022/12/02 05:08:45;;;;;;;5.45;3.42;;;14.30;68.10;;;;;;5123640;28;20043;-68
2022/12/02 05:11:11;;;;;;;4.00;3.30;;;14.30;68.20;;;;;;5123608;28;20028;-67
2022/12/02 05:13:36;;;;;;;3.78;3.35;;;14.30;68.10;;;;;;5105239;28;20058;-67
2022/12/02 05:16:02;;;;;;;4.10;3.25;;;14.30;68.10;;;;;;5123392;28;20075;-68
2022/12/02 05:18:28;;;;;;;4.60;3.72;;;14.30;68.10;;;;;;5123446;28;20211;-68
2022/12/02 05:20:54;;;;;;;5.25;3.78;;;14.30;68.10;;;;;;5123367;28;20020;-68
2022/12/02 05:23:19;;;;;;;3.92;3.28;;;14.30;68.20;;;;;;5123390;28;20011;-68
2022/12/02 05:25:45;;;;;;;4.43;3.40;;;14.20;68.40;;;;;;5123241;28;20334;-68
2022/12/02 05:28:11;;;;;;;4.88;3.83;;;14.20;68.50;;;;;;5123289;28;20020;-67
2022/12/02 05:30:37;;;;;;;4.07;3.35;;;14.20;68.60;;;;;;5123291;28;20036;-67
2022/12/02 05:33:02;;;;;;;3.80;3.30;;;14.20;68.70;;;;;;5123047;28;20016;-68
2022/12/02 05:35:28;;;;;;;4.32;3.25;;;14.10;68.70;;;;;;5123138;28;20040;-67
2022/12/02 05:37:54;;;;;;;4.30;3.58;;;14.20;68.80;;;;;;5123111;28;20133;-68
2022/12/02 05:40:21;;;;;;;5.65;3.88;;;14.20;68.90;;;;;;5122793;28;20107;-69
2022/12/02 05:42:46;;;;;;;3.80;3.10;;;14.20;68.80;;;;;;5122932;28;20058;-68
2022/12/02 05:45:18;;;;;;;3.75;3.10;;;14.20;69.00;;;;;;5122974;28;20019;-68
2022/12/02 05:47:49;;;;;;;4.05;3.38;;;14.10;68.90;;;;;;5123041;28;20422;-68
2022/12/02 05:50:15;;;;;;;3.35;3.00;;;14.20;68.80;;;;;;5122995;28;20015;-68
2022/12/02 05:52:42;;;;;;;3.88;3.45;;;14.20;68.70;;;;;;5122908;28;20086;-68
2022/12/02 05:55:14;;;;;;;4.18;3.53;;;14.20;68.60;;;;;;5122839;28;20035;-67
2022/12/02 05:57:40;;;;;;;3.40;3.10;;;14.20;68.50;;;;;;5122863;28;20012;-68
2022/12/02 06:00:13;;;;;;;4.28;3.55;;;14.20;68.50;;;;;;5122865;28;20370;-68
2022/12/02 06:02:44;;;;;;;4.03;3.63;;;14.20;68.50;;;;;;5122834;28;20307;-68
2022/12/02 06:05:18;;;;;;;3.53;2.80;;;14.20;69.10;;;;;;5122746;28;20036;-69
2022/12/02 06:07:46;;;;;;;4.35;3.65;;;14.20;68.40;;;;;;5122720;28;20056;-68
2022/12/02 06:10:30;;;;;;;4.80;3.80;;;14.30;68.40;;;;;;5122667;28;20091;-68
2022/12/02 06:13:10;;;;;;;4.10;3.10;;;14.30;68.30;;;;;;5122643;28;20072;-68
2022/12/02 06:15:37;;;;;;;4.25;3.30;;;14.30;68.30;;;;;;5122626;28;20353;-67
2022/12/02 06:18:17;;;;;;;3.67;3.10;;;14.30;68.20;;;;;;5122530;28;20019;-68
2022/12/02 06:20:45;;;;;;;3.92;3.00;;;14.30;68.10;;;;;;5122586;28;20083;-68
2022/12/02 06:23:15;;;;;;;4.20;3.30;;;14.30;68.20;;;;;;5122564;28;20008;-67
2022/12/02 06:25:41;;;;;;;5.18;3.20;;;14.20;68.10;;;;;;5122477;28;20015;-67
2022/12/02 06:28:15;;;;;;;3.95;3.55;;;14.30;68.20;;;;;;5122466;28;20379;-67
2022/12/02 06:30:41;;;;;;;4.82;3.22;;;14.30;68.20;;;;;;5122449;28;20031;-69
2022/12/02 06:33:21;;;;;;;4.30;3.20;;;14.30;68.20;;;;;;5122293;28;20047;-67
2022/12/02 06:35:47;;;;;;;4.78;3.17;;;14.20;68.30;;;;;;5104288;28;20024;-67
2022/12/02 06:38:25;;;;;;;3.92;3.00;;;14.20;68.60;;;;;;5122290;28;20023;-68
2022/12/02 06:40:51;;;;;;;4.28;3.38;;;14.20;68.70;;;;;;5122420;28;20089;-68
2022/12/02 06:43:24;;;;;;;4.38;3.22;;;14.20;69.50;;;;;;5082748;28;20046;-67
2022/12/02 06:45:50;;;;;;;3.50;3.20;;;14.10;68.70;;;;;;5081787;28;20017;-67
2022/12/02 06:48:31;;;;;;;4.28;3.30;;;14.20;68.90;;;;;;5081715;28;20022;-68
2022/12/02 06:51:06;;;;;;;3.80;3.08;;;14.20;68.60;;;;;;5082247;28;20023;-67
2022/12/02 06:53:38;;;;;;;3.45;3.15;;;14.10;69.30;;;;;;5085524;28;20012;-68
2022/12/02 06:56:15;;;;;;;4.65;3.40;;;14.10;68.70;;;;;;5085596;28;20083;-68
2022/12/02 06:58:56;;;;;;;5.00;3.30;;;14.20;68.90;;;;;;5085414;28;20043;-68
2022/12/02 07:01:31;;;;;;;3.80;3.17;;;14.20;68.60;;;;;;5085460;28;20040;-68
2022/12/02 07:04:05;;;;;;;3.35;2.63;;;14.20;69.20;;;;;;5084218;28;20281;-69
2022/12/02 07:06:32;;;;;;;4.45;3.50;;;14.20;68.50;;;;;;5085392;28;20085;-67
2022/12/02 07:09:26;;;;;;;4.57;3.30;;;14.20;68.50;;;;;;5085321;28;20020;-68
2022/12/02 07:11:52;;;;;;;4.68;3.53;;;14.20;68.40;;;;;;5085096;28;20197;-68
2022/12/02 07:14:42;;;;;;;4.93;3.95;;;14.20;68.40;;;;;;5085122;28;20255;-68
2022/12/02 07:17:29;;;;;;;3.58;3.13;;;14.20;68.40;;;;;;5085161;28;20012;-68
2022/12/02 07:20:24;;;;;;;3.72;3.17;;;14.20;68.30;;;;;;5085182;28;20024;-68
2022/12/02 07:22:59;;;;;;;3.97;3.00;;;14.20;68.30;;;;;;5085073;28;20320;-67
2022/12/02 07:25:31;;;;;;;4.25;3.60;;;14.20;68.30;;;;;;5085033;28;20315;-67
2022/12/02 07:27:57;;;;;;;4.75;3.92;;;14.30;68.30;;;;;;5084927;28;20023;-67
2022/12/02 07:30:36;;;;;;;4.53;3.55;;;14.20;68.20;;;;;;5084907;28;20048;-68
2022/12/02 07:33:02;;;;;;;3.95;3.22;;;14.30;68.20;;;;;;5084781;28;20058;-67
2022/12/02 07:35:28;;;;;;;5.47;3.25;;;14.30;68.20;;;;;;5084718;28;20074;-69
2022/12/02 07:37:54;;;;;;;4.10;3.33;;;14.30;68.30;;;;;;5084710;28;20028;-67
2022/12/02 07:40:20;;;;;;;4.35;3.25;;;14.30;68.20;;;;;;5084718;28;20327;-68
2022/12/02 07:42:47;;;;;;;4.13;3.33;;;14.30;68.10;;;;;;5111870;28;20035;-67
2022/12/02 07:45:14;;;;;;;4.50;3.58;;;14.30;68.10;;;;;;5125232;28;20020;-69
2022/12/02 07:47:40;;;;;;;3.90;3.42;;;14.30;68.10;;;;;;5125221;28;20293;-68
2022/12/02 07:50:07;;;;;;;4.03;3.42;;;14.30;68.10;;;;;;5125178;28;20024;-68
2022/12/02 07:52:33;;;;;;;4.72;3.47;;;14.30;68.20;;;;;;5125077;28;20207;-67
2022/12/02 07:55:00;;;;;;;3.95;3.20;;;14.20;68.40;;;;;;5125116;28;20328;-67
2022/12/02 07:57:27;;;;;;;4.18;2.63;;;14.20;68.50;;;;;;5125085;28;20064;-68
2022/12/02 07:59:53;;;;;;;4.05;3.20;;;14.20;68.60;;;;;;5125012;28;20035;-68
2022/12/02 08:02:18;;;;;;;5.50;3.65;;;14.20;68.60;;;;;;5124901;28;20015;-68
2022/12/02 08:04:44;;;;;;;4.03;3.15;;;14.20;68.70;;;;;;5106646;28;20338;-67
2022/12/02 08:07:10;;;;;;;3.65;2.90;;;14.20;68.70;;;;;;5124881;28;20011;-67
2022/12/02 08:09:36;;;;;;;4.47;3.20;;;14.20;68.80;;;;;;5124825;28;20056;-68
2022/12/02 08:12:02;;;;;;;3.92;3.13;;;14.20;68.80;;;;;;5124747;28;20020;-69
2022/12/02 08:14:28;;;;;;;4.35;3.30;;;14.20;68.60;;;;;;5124717;28;20054;-68
2022/12/02 08:16:54;;;;;;;3.92;3.10;;;14.20;68.60;;;;;;5124711;28;20015;-68
2022/12/02 08:19:19;;;;;;;4.00;3.47;;;14.20;68.60;;;;;;5124698;28;20023;-67
2022/12/02 08:21:45;;;;;;;4.25;3.35;;;14.20;68.50;;;;;;5124660;28;20204;-68
2022/12/02 08:24:11;;;;;;;4.57;3.60;;;14.20;68.70;;;;;;5124595;28;20207;-68
2022/12/02 08:26:37;;;;;;;4.25;3.63;;;14.20;68.40;;;;;;5124421;28;20030;-67
2022/12/02 08:29:02;;;;;;;5.35;3.35;;;14.20;68.40;;;;;;5124472;28;20020;-68
2022/12/02 08:31:28;;;;;;;4.85;3.17;;;14.20;68.30;;;;;;5124395;28;20090;-68
2022/12/02 08:33:54;;;;;;;5.70;3.75;;;14.30;68.40;;;;;;5124356;28;20070;-69
2022/12/02 08:36:20;;;;;;;3.90;3.15;;;14.30;68.30;;;;;;5124366;28;20046;-67
2022/12/02 08:38:47;;;;;;;4.20;2.90;;;14.20;68.20;;;;;;5124294;28;20016;-67
2022/12/02 08:41:13;;;;;;;4.65;3.80;;;14.30;68.30;;;;;;5124100;28;20083;-67
2022/12/02 08:43:39;;;;;;;3.75;3.03;;;14.30;68.20;;;;;;5124288;28;20072;-67
2022/12/02 08:46:06;;;;;;;4.00;3.38;;;14.20;68.10;;;;;;5124181;28;20031;-67
2022/12/02 08:48:31;;;;;;;4.45;3.53;;;14.30;68.10;;;;;;5105897;28;20019;-68
2022/12/02 08:50:58;;;;;;;5.63;3.90;;;14.30;68.10;;;;;;5124140;28;20348;-69
2022/12/02 08:53:23;;;;;;;4.25;3.25;;;14.30;68.10;;;;;;5123947;28;20055;-68
2022/12/02 08:55:50;;;;;;;4.40;3.25;;;14.30;68.10;;;;;;5123929;28;20011;-68
2022/12/02 08:58:16;;;;;;;3.80;2.88;;;14.30;68.20;;;;;;5123925;28;20072;-67
2022/12/02 09:00:41;;;;;;;4.68;3.90;;;14.30;68.30;;;;;;5123861;28;20237;-68
2022/12/02 09:03:08;;;;;;;4.18;3.20;;;14.30;68.30;;;;;;5123823;28;20019;-68
2022/12/02 09:05:35;;;;;;;4.72;3.42;;;14.20;68.40;;;;;;5123778;28;20217;-68
2022/12/02 09:08:01;;;;;;;3.10;2.70;;;14.20;68.60;;;;;;5123803;28;20399;-67
2022/12/02 09:10:27;;;;;;;4.18;3.17;;;14.20;68.70;;;;;;5123757;28;20023;-68
2022/12/02 09:12:53;;;;;;;4.07;3.28;;;14.20;68.80;;;;;;5123608;28;20307;-68
2022/12/02 09:15:20;;;;;;;4.20;3.40;;;14.20;68.70;;;;;;5123024;28;20028;-67
2022/12/02 09:17:46;;;;;;;3.78;3.20;;;14.20;68.80;;;;;;5123545;28;20027;-68
2022/12/02 09:20:13;;;;;;;3.42;2.78;;;14.20;68.80;;;;;;5123465;28;20019;-68
2022/12/02 09:22:39;;;;;;;5.25;3.70;;;14.20;68.80;;;;;;5123465;28;20011;-68
2022/12/02 09:25:05;;;;;;;4.53;2.92;;;14.20;68.70;;;;;;5123360;28;20023;-68
2022/12/02 09:27:31;;;;;;;3.75;3.15;;;14.20;68.70;;;;;;5123419;28;20027;-67
2022/12/02 09:29:57;;;;;;;4.22;3.13;;;14.20;68.70;;;;;;5123338;28;20082;-68
2022/12/02 09:32:23;;;;;;;4.88;3.28;;;14.20;68.60;;;;;;5123295;28;20019;-68
2022/12/02 09:34:49;;;;;;;3.92;3.22;;;14.20;68.60;;;;;;5123163;28;20030;-67
2022/12/02 09:37:15;;;;;;;4.38;3.30;;;14.20;68.60;;;;;;5123141;28;20015;-69
2022/12/02 09:39:41;;;;;;;3.97;3.15;;;14.20;68.50;;;;;;5123203;28;20651;-69
2022/12/02 09:42:10;;;;;;;4.25;3.17;;;14.20;68.50;;;;;;5122994;28;20289;-67
2022/12/02 09:44:37;;;;;;;3.20;2.90;;;14.20;68.40;;;;;;5123032;28;20267;-67
2022/12/02 09:47:03;;;;;;;4.05;3.20;;;14.20;68.40;;;;;;5123013;28;20011;-67
2022/12/02 09:49:30;;;;;;;3.88;3.10;;;14.20;68.40;;;;;;5122972;28;20023;-68
2022/12/02 09:52:00;;;;;;;4.72;3.45;;;14.30;68.40;;;;;;5122985;28;20027;-67
2022/12/02 09:54:26;;;;;;;5.03;3.65;;;14.30;68.40;;;;;;5122791;28;20289;-67
2022/12/02 09:56:52;;;;;;;4.60;3.58;;;14.20;68.30;;;;;;5104657;28;20231;-66
2022/12/02 09:59:18;;;;;;;5.00;3.80;;;14.30;68.30;;;;;;5122855;28;20079;-66
2022/12/02 10:01:47;;;;;;;4.57;3.72;;;14.30;68.30;;;;;;5122878;28;20022;-67
2022/12/02 10:04:19;;;;;;;4.18;3.42;;;14.30;68.20;;;;;;5122795;28;20042;-68
2022/12/02 10:06:45;;;;;;;4.47;3.35;;;14.30;68.30;;;;;;5122736;28;20023;-67
2022/12/02 10:09:21;;;;;;;4.30;2.92;;;14.30;68.30;;;;;;5122715;28;20049;-68
2022/12/02 10:11:47;;;;;;;4.07;3.28;;;14.20;68.20;;;;;;5122758;28;20087;-67
2022/12/02 10:14:14;;;;;;;3.85;3.25;;;14.20;68.50;;;;;;5122578;28;20019;-67
2022/12/02 10:16:40;;;;;;;4.10;3.05;;;14.20;68.60;;;;;;5122622;28;20054;-67
2022/12/02 10:19:07;;;;;;;5.05;3.60;;;14.20;68.60;;;;;;5122599;28;20041;-67
2022/12/02 10:21:33;;;;;;;4.07;3.03;;;14.20;68.70;;;;;;5122577;28;20345;-67
2022/12/02 10:24:04;;;;;;;3.53;2.95;;;14.20;68.60;;;;;;5122468;28;20023;-66
2022/12/02 10:26:51;;;;;;;4.20;3.53;;;14.20;68.50;;;;;;5124174;28;20301;-67
2022/12/02 10:29:18;;;;;;;4.78;3.40;;;14.20;68.50;;;;;;5126820;28;20015;-68
2022/12/02 10:32:04;;;;;;;3.20;2.90;;;14.20;68.60;;;;;;5126744;28;20365;-68
2022/12/02 10:34:31;;;;;;;3.58;3.03;;;14.20;68.60;;;;;;5126719;28;20035;-69
2022/12/02 10:37:16;;;;;;;4.65;3.08;;;14.20;68.70;;;;;;5126676;28;20060;-68
2022/12/02 10:39:42;;;;;;;3.53;3.00;;;14.20;68.50;;;;;;5108413;28;20019;-67
2022/12/02 10:42:17;;;;;;;3.53;2.95;;;14.20;68.60;;;;;;5125972;28;20055;-68
2022/12/02 10:44:44;;;;;;;4.18;3.22;;;14.20;68.60;;;;;;5108348;28;20223;-67
2022/12/02 10:47:20;;;;;;;5.30;3.13;;;14.20;68.50;;;;;;5126514;28;20015;-68
2022/12/02 10:49:57;;;;;;;4.03;3.33;;;14.20;68.50;;;;;;5126482;28;20020;-68
2022/12/02 10:52:40;;;;;;;3.58;3.25;;;14.20;68.40;;;;;;5126392;28;20015;-68
2022/12/02 10:55:08;;;;;;;4.13;3.50;;;14.20;68.40;;;;;;5126288;28;20022;-67
2022/12/02 10:57:34;;;;;;;4.30;2.88;;;14.20;69.10;;;;;;5126378;28;20011;-68
2022/12/02 11:00:18;;;;;;;3.90;3.03;;;14.20;68.40;;;;;;5126315;28;20023;-69
2022/12/02 11:03:04;;;;;;;4.53;2.92;;;14.20;69.00;;;;;;5126264;28;20031;-66
2022/12/02 11:05:34;;;;;;;4.13;3.35;;;14.20;68.30;;;;;;5126229;28;20334;-68
2022/12/02 11:08:27;;;;;;;4.22;3.35;;;14.20;68.50;;;;;;5126109;28;20075;-68
2022/12/02 11:11:12;;;;;;;3.30;2.90;;;14.20;68.40;;;;;;5121944;28;20086;-68
2022/12/02 11:13:55;;;;;;;4.72;3.80;;;14.20;68.30;;;;;;5125932;28;20473;-68
2022/12/02 11:16:27;;;;;;;4.55;3.50;;;14.20;68.30;;;;;;5126009;28;20027;-69
2022/12/02 11:18:57;;;;;;;4.00;3.60;;;14.20;68.30;;;;;;5125879;28;20073;-68
2022/12/02 11:21:28;;;;;;;4.38;3.47;;;14.20;68.50;;;;;;5125821;28;20084;-68
2022/12/02 11:24:22;;;;;;;4.32;3.30;;;14.20;68.50;;;;;;5125775;28;20047;-68
2022/12/02 11:27:14;;;;;;;3.33;2.78;;;14.20;68.60;;;;;;5125726;28;20054;-68
2022/12/02 11:30:05;;;;;;;4.20;3.38;;;14.20;68.70;;;;;;5121871;28;20051;-66
2022/12/02 11:32:37;;;;;;;4.60;3.55;;;14.20;68.70;;;;;;5109197;28;20030;-68
2022/12/02 11:35:04;;;;;;;3.10;2.53;;;14.20;68.70;;;;;;5107224;28;20016;-69
2022/12/02 11:37:33;;;;;;;3.75;3.00;;;14.20;68.70;;;;;;5125121;28;20023;-67
2022/12/02 11:40:00;;;;;;;3.78;3.28;;;14.20;68.70;;;;;;5125599;28;20015;-67
2022/12/02 11:42:29;;;;;;;5.07;3.53;;;14.20;68.60;;;;;;5124671;28;20044;-67
2022/12/02 11:45:16;;;;;;;4.13;3.20;;;14.20;68.60;;;;;;5125463;28;20031;-67
2022/12/02 11:47:55;;;;;;;5.03;3.73;;;14.20;68.70;;;;;;5107136;28;20211;-66
2022/12/02 11:50:28;;;;;;;3.95;3.13;;;14.20;68.80;;;;;;5125365;28;20304;-69
2022/12/02 11:52:58;;;;;;;3.67;3.08;;;14.20;68.70;;;;;;5125270;28;20015;-68
2022/12/02 11:55:48;;;;;;;3.10;2.80;;;14.20;68.70;;;;;;5125196;28;20011;-69
2022/12/02 11:58:19;;;;;;;5.00;3.83;;;14.20;68.70;;;;;;5124567;28;20095;-69
2022/12/02 12:01:13;;;;;;;4.03;3.63;;;14.20;68.60;;;;;;5106807;28;20084;-68
2022/12/02 12:03:45;;;;;;;3.90;3.40;;;14.20;68.60;;;;;;5124978;28;20016;-69
2022/12/02 12:06:20;;;;;;;4.18;3.35;;;14.20;68.60;;;;;;5124958;28;20030;-66
2022/12/02 12:08:56;;;;;;;4.63;3.55;;;14.20;68.60;;;;;;5124959;28;20020;-68
2022/12/02 12:11:28;;;;;;;4.60;3.72;;;14.20;68.40;;;;;;5124903;28;20043;-67
2022/12/02 12:14:12;;;;;;;4.50;3.45;;;14.20;68.50;;;;;;5124788;28;20023;-67
2022/12/02 12:16:41;;;;;;;3.17;2.70;;;14.30;69.10;;;;;;5124892;28;20020;-68
2022/12/02 12:19:13;;;;;;;4.40;3.05;;;14.20;68.40;;;;;;5124806;28;20007;-67
2022/12/02 12:21:44;;;;;;;5.32;3.28;;;14.20;68.30;;;;;;5124753;28;20012;-68
2022/12/02 12:24:16;;;;;;;5.07;3.83;;;14.30;68.30;;;;;;5106577;28;20043;-69
2022/12/02 12:26:46;;;;;;;5.65;3.78;;;14.30;68.30;;;;;;5124611;28;20022;-69
2022/12/02 12:29:13;;;;;;;3.97;3.58;;;14.30;68.30;;;;;;5124594;28;20421;-67
2022/12/02 12:31:38;;;;;;;3.90;3.05;;;14.30;68.30;;;;;;5124460;28;20069;-67
2022/12/02 12:34:05;;;;;;;3.63;3.08;;;14.20;68.30;;;;;;5124367;28;20020;-68
2022/12/02 12:36:31;;;;;;;4.53;3.53;;;14.30;68.40;;;;;;5106161;28;20315;-68
2022/12/02 12:38:57;;;;;;;3.95;3.25;;;14.20;68.50;;;;;;5124332;28;20078;-67
2022/12/02 12:41:23;;;;;;;4.47;3.60;;;14.20;68.50;;;;;;5124114;28;20203;-68
2022/12/02 12:43:49;;;;;;;4.45;3.67;;;14.20;68.70;;;;;;5124319;28;20027;-68
2022/12/02 12:46:16;;;;;;;4.43;3.50;;;14.20;68.80;;;;;;5124178;28;20330;-68
2022/12/02 12:48:42;;;;;;;4.47;3.10;;;14.20;68.80;;;;;;5123273;28;20058;-68
2022/12/02 12:51:11;;;;;;;3.90;3.42;;;14.20;68.80;;;;;;5124175;28;20069;-68
2022/12/02 12:53:37;;;;;;;3.88;3.00;;;14.20;68.80;;;;;;5124045;28;20035;-68
2022/12/02 12:56:03;;;;;;;3.88;3.38;;;14.20;68.80;;;;;;5123993;28;20074;-68
2022/12/02 12:58:29;;;;;;;4.55;3.53;;;14.20;68.80;;;;;;5124004;28;20270;-68
2022/12/02 13:00:54;;;;;;;3.92;3.03;;;14.20;68.90;;;;;;5123974;28;20035;-68